createdAt,value
2018-08-23T00:00:44.772Z,22.20
2018-08-23T00:02:49.545Z,20.67
2018-08-23T00:04:54.463Z,21.90
2018-08-23T00:07:01.268Z,22.30
2018-08-23T00:09:08.831Z,22.13
2018-08-23T00:11:13.799Z,25.03
2018-08-23T00:13:19.312Z,21.33
2018-08-23T00:15:28.026Z,23.30
2018-08-23T00:17:37.090Z,25.00
2018-08-23T00:19:42.013Z,21.90
2018-08-23T00:21:48.666Z,22.33
2018-08-23T00:24:14.039Z,24.20
2018-08-23T00:26:19.166Z,21.50
2018-08-23T00:28:24.213Z,24.90
2018-08-23T00:30:30.180Z,22.90
2018-08-23T00:32:35.205Z,21.07
2018-08-23T00:34:40.920Z,22.20
2018-08-23T00:36:45.970Z,24.20
2018-08-23T00:38:51.017Z,22.00
2018-08-23T00:40:56.078Z,23.00
2018-08-23T00:43:05.214Z,23.40
2018-08-23T00:45:20.039Z,22.30
2018-08-23T00:47:32.336Z,23.63
2018-08-23T00:49:38.501Z,24.37
2018-08-23T00:51:44.626Z,21.10
2018-08-23T00:53:54.694Z,24.03
2018-08-23T00:56:30.329Z,23.60
2018-08-23T00:58:35.500Z,22.60
2018-08-23T01:00:40.734Z,21.80
2018-08-23T01:02:48.965Z,23.47
2018-08-23T01:04:54.079Z,23.87
2018-08-23T01:06:59.141Z,23.93
2018-08-23T01:09:05.072Z,21.93
2018-08-23T01:11:10.644Z,23.83
2018-08-23T01:13:15.706Z,23.90
2018-08-23T01:15:21.629Z,22.40
2018-08-23T01:17:26.509Z,23.23
2018-08-23T01:19:36.552Z,23.57
2018-08-23T01:21:49.233Z,21.73
2018-08-23T01:23:54.354Z,23.23
2018-08-23T01:25:59.508Z,22.83
2018-08-23T01:28:04.971Z,20.77
2018-08-23T01:30:10.054Z,23.77
2018-08-23T01:32:20.389Z,22.37
2018-08-23T01:34:25.468Z,23.50
2018-08-23T01:36:32.751Z,21.77
2018-08-23T01:38:37.917Z,23.20
2018-08-23T01:40:45.889Z,23.73
2018-08-23T01:42:50.792Z,23.70
2018-08-23T01:44:55.614Z,23.27
2018-08-23T01:47:02.599Z,22.43
2018-08-23T01:49:07.934Z,21.57
2018-08-23T01:51:13.143Z,23.67
2018-08-23T01:53:20.623Z,21.20
2018-08-23T01:55:26.235Z,22.10
2018-08-23T01:57:35.720Z,22.30
2018-08-23T01:59:40.988Z,23.57
2018-08-23T02:01:46.112Z,22.87
2018-08-23T02:03:51.126Z,23.00
2018-08-23T02:05:58.560Z,22.20
2018-08-23T02:08:03.777Z,24.03
2018-08-23T02:10:08.860Z,23.07
2018-08-23T02:12:14.125Z,24.10
2018-08-23T02:14:19.207Z,24.27
2018-08-23T02:16:24.409Z,26.67
2018-08-23T02:18:29.729Z,25.00
2018-08-23T02:20:35.009Z,24.97
2018-08-23T02:22:39.966Z,24.33
2018-08-23T02:24:49.483Z,24.27
2018-08-23T02:26:54.390Z,24.20
2018-08-23T02:28:59.467Z,24.93
2018-08-23T02:31:04.669Z,25.10
2018-08-23T02:33:13.805Z,23.03
2018-08-23T02:35:19.272Z,25.40
2018-08-23T02:37:24.391Z,23.70
2018-08-23T02:39:29.369Z,26.23
2018-08-23T02:41:34.465Z,24.90
2018-08-23T02:43:39.483Z,24.43
2018-08-23T02:45:49.649Z,24.80
2018-08-23T02:47:54.734Z,24.40
2018-08-23T02:49:59.861Z,24.80
2018-08-23T02:52:05.766Z,24.87
2018-08-23T02:54:14.126Z,24.97
2018-08-23T02:56:21.193Z,24.90
2018-08-23T02:58:26.656Z,24.50
2018-08-23T03:00:36.653Z,25.70
2018-08-23T03:02:41.844Z,24.60
2018-08-23T03:04:46.799Z,26.43
2018-08-23T03:06:57.885Z,26.03
2018-08-23T03:09:03.210Z,26.80
2018-08-23T03:11:10.162Z,26.00
2018-08-23T03:13:15.372Z,29.17
2018-08-23T03:15:24.731Z,27.40
2018-08-23T03:17:37.967Z,28.00
2018-08-23T03:20:03.906Z,25.70
2018-08-23T03:22:08.994Z,25.97
2018-08-23T03:24:14.085Z,27.77
2018-08-23T03:26:18.936Z,26.53
2018-08-23T03:28:23.827Z,24.80
2018-08-23T03:30:28.835Z,24.90
2018-08-23T03:32:33.959Z,25.90
2018-08-23T03:34:39.092Z,25.90
2018-08-23T03:36:44.266Z,25.43
2018-08-23T03:38:49.372Z,25.80
2018-08-23T03:40:54.549Z,26.30
2018-08-23T03:42:59.921Z,26.27
2018-08-23T03:45:05.205Z,25.07
2018-08-23T03:47:10.536Z,27.17
2018-08-23T03:49:15.738Z,25.87
2018-08-23T03:51:21.090Z,26.07
2018-08-23T03:53:47.474Z,25.07
2018-08-23T03:56:08.985Z,24.20
2018-08-23T03:58:14.092Z,24.97
2018-08-23T04:00:23.612Z,25.67
2018-08-23T04:02:28.580Z,25.63
2018-08-23T04:04:33.334Z,25.77
2018-08-23T04:06:38.188Z,24.60
2018-08-23T04:08:43.018Z,26.87
2018-08-23T04:10:47.822Z,27.83
2018-08-23T04:12:52.720Z,26.17
2018-08-23T04:15:12.083Z,24.57
2018-08-23T04:17:17.109Z,27.20
2018-08-23T04:19:22.315Z,24.37
2018-08-23T04:21:28.186Z,24.27
2018-08-23T04:23:34.282Z,24.37
2018-08-23T04:25:39.385Z,23.93
2018-08-23T04:27:44.519Z,21.40
2018-08-23T04:29:49.671Z,22.83
2018-08-23T04:31:54.897Z,23.60
2018-08-23T04:33:59.801Z,21.50
2018-08-23T04:36:04.817Z,19.77
2018-08-23T04:38:09.860Z,22.10
2018-08-23T04:40:15.019Z,20.80
2018-08-23T04:42:19.954Z,20.90
2018-08-23T04:44:25.124Z,21.73
2018-08-23T04:46:33.225Z,22.33
2018-08-23T04:48:38.416Z,20.97
2018-08-23T04:50:43.429Z,21.07
2018-08-23T04:52:48.309Z,21.97
2018-08-23T04:54:53.180Z,21.03
2018-08-23T04:56:58.313Z,22.60
2018-08-23T04:59:03.249Z,19.57
2018-08-23T05:01:08.213Z,21.23
2018-08-23T05:03:13.126Z,22.10
2018-08-23T05:05:18.024Z,23.23
2018-08-23T05:07:24.129Z,21.60
2018-08-23T05:09:29.038Z,21.17
2018-08-23T05:11:33.927Z,23.07
2018-08-23T05:13:39.036Z,24.33
2018-08-23T05:15:45.373Z,21.03
2018-08-23T05:17:50.921Z,22.37
2018-08-23T05:19:55.910Z,22.47
2018-08-23T05:22:00.935Z,22.40
2018-08-23T05:24:12.781Z,21.17
2018-08-23T05:26:19.278Z,22.17
2018-08-23T05:28:24.488Z,23.00
2018-08-23T05:30:30.031Z,22.07
2018-08-23T05:32:49.208Z,22.80
2018-08-23T05:35:05.223Z,20.20
2018-08-23T05:37:21.263Z,21.50
2018-08-23T05:42:09.042Z,22.23
2018-08-23T05:44:19.738Z,21.97
2018-08-23T05:46:26.261Z,22.03
2018-08-23T05:48:32.359Z,23.00
2018-08-23T05:50:39.676Z,23.40
2018-08-23T05:52:52.387Z,22.07
2018-08-23T05:54:57.978Z,21.40
2018-08-23T05:57:03.184Z,22.40
2018-08-23T05:59:13.965Z,22.70
2018-08-23T06:01:19.064Z,23.23
2018-08-23T06:03:24.184Z,23.47
2018-08-23T06:05:29.466Z,22.57
2018-08-23T06:07:35.328Z,25.00
2018-08-23T06:09:43.159Z,25.43
2018-08-23T06:11:48.125Z,26.23
2018-08-23T06:13:53.364Z,27.53
2018-08-23T06:15:58.530Z,28.63
2018-08-23T06:18:03.745Z,26.60
2018-08-23T06:20:09.458Z,28.67
2018-08-23T06:22:13.704Z,30.10
2018-08-23T06:24:18.676Z,28.00
2018-08-23T06:26:54.169Z,30.33
2018-08-23T06:28:59.105Z,31.77
2018-08-23T06:31:05.507Z,28.37
2018-08-23T06:33:10.830Z,31.50
2018-08-23T06:35:15.843Z,30.97
2018-08-23T06:37:22.496Z,30.47
2018-08-23T06:39:27.548Z,28.93
2018-08-23T06:41:32.942Z,29.37
2018-08-23T06:43:38.498Z,32.20
2018-08-23T06:45:43.654Z,29.87
2018-08-23T06:47:56.732Z,33.07
2018-08-23T06:50:02.315Z,29.93
2018-08-23T06:52:14.536Z,32.67
2018-08-23T06:54:20.931Z,29.47
2018-08-23T06:56:26.273Z,29.27
2018-08-23T06:58:32.409Z,30.40
2018-08-23T07:00:37.371Z,30.43
2018-08-23T07:02:48.474Z,29.80
2018-08-23T07:04:54.283Z,29.60
2018-08-23T07:06:59.362Z,29.70
2018-08-23T07:09:07.380Z,30.70
2018-08-23T07:11:21.241Z,28.67
2018-08-23T07:13:28.203Z,30.63
2018-08-23T07:15:33.754Z,29.77
2018-08-23T07:17:40.249Z,27.13
2018-08-23T07:19:47.040Z,29.03
2018-08-23T07:21:56.450Z,28.50
2018-08-23T07:24:02.273Z,27.90
2018-08-23T07:26:08.045Z,26.97
2018-08-23T07:28:13.611Z,29.37
2018-08-23T07:30:21.065Z,29.00
2018-08-23T07:32:32.652Z,27.10
2018-08-23T07:34:39.986Z,29.43
2018-08-23T07:36:45.509Z,26.87
2018-08-23T07:38:50.913Z,29.50
2018-08-23T07:40:55.876Z,28.20
2018-08-23T07:43:01.002Z,25.47
2018-08-23T07:45:06.814Z,29.53
2018-08-23T07:47:13.072Z,28.77
2018-08-23T07:49:19.481Z,28.30
2018-08-23T07:51:25.799Z,29.10
2018-08-23T07:53:31.063Z,29.67
2018-08-23T07:55:36.220Z,30.50
2018-08-23T07:57:42.083Z,29.10
2018-08-23T07:59:47.623Z,30.40
2018-08-23T08:01:52.871Z,28.50
2018-08-23T08:03:58.832Z,29.70
2018-08-23T08:06:04.004Z,29.30
2018-08-23T08:08:12.196Z,27.00
2018-08-23T08:10:20.429Z,29.97
2018-08-23T08:12:39.769Z,29.57
2018-08-23T08:14:44.783Z,27.90
2018-08-23T08:16:49.804Z,28.20
2018-08-23T08:18:55.028Z,24.80
2018-08-23T08:21:02.913Z,26.57
2018-08-23T08:23:07.989Z,24.40
2018-08-23T08:25:19.750Z,23.97
2018-08-23T08:27:24.996Z,24.60
2018-08-23T08:29:35.226Z,27.63
2018-08-23T08:31:40.209Z,26.80
2018-08-23T08:33:45.479Z,23.90
2018-08-23T08:35:51.662Z,25.30
2018-08-23T08:37:56.634Z,23.13
2018-08-23T08:40:01.866Z,26.00
2018-08-23T08:42:06.970Z,23.40
2018-08-23T08:44:12.213Z,22.93
2018-08-23T08:46:17.135Z,23.37
2018-08-23T08:48:30.337Z,22.60
2018-08-23T08:50:39.934Z,20.80
2018-08-23T08:52:44.878Z,20.87
2018-08-23T08:54:50.271Z,20.70
2018-08-23T08:56:57.553Z,20.77
2018-08-23T08:59:02.617Z,23.03
2018-08-23T09:01:07.663Z,25.70
2018-08-23T09:03:12.700Z,22.53
2018-08-23T09:05:18.070Z,20.40
2018-08-23T09:07:29.377Z,19.70
2018-08-23T09:09:37.120Z,17.27
2018-08-23T09:11:42.885Z,19.23
2018-08-23T09:13:48.338Z,18.20
2018-08-23T09:15:54.301Z,18.30
2018-08-23T09:17:59.456Z,19.77
2018-08-23T09:20:09.610Z,15.37
2018-08-23T09:22:19.438Z,16.03
2018-08-23T09:24:28.383Z,16.53
2018-08-23T09:26:38.885Z,15.40
2018-08-23T09:28:43.837Z,16.07
2018-08-23T09:30:48.971Z,13.20
2018-08-23T09:32:54.182Z,12.40
2018-08-23T09:37:16.039Z,10.93
2018-08-23T09:39:21.230Z,10.97
2018-08-23T09:41:26.911Z,10.00
2018-08-23T09:43:33.311Z,10.47
2018-08-23T09:45:39.228Z,9.60
2018-08-23T09:47:44.414Z,9.50
2018-08-23T09:49:51.693Z,7.03
2018-08-23T09:51:56.796Z,6.90
2018-08-23T09:54:02.049Z,8.50
2018-08-23T09:56:07.726Z,9.03
2018-08-23T09:58:17.902Z,8.37
2018-08-23T10:00:30.023Z,7.27
2018-08-23T10:02:40.310Z,6.97
2018-08-23T10:04:50.250Z,7.10
2018-08-23T10:07:03.649Z,7.07
2018-08-23T10:09:25.122Z,8.13
2018-08-23T10:11:34.933Z,7.27
2018-08-23T10:13:50.607Z,8.20
2018-08-23T10:16:00.467Z,9.10
2018-08-23T10:18:10.468Z,10.23
2018-08-23T10:20:20.264Z,7.70
2018-08-23T10:23:31.442Z,8.73
2018-08-23T10:25:51.227Z,8.47
2018-08-23T10:27:56.333Z,8.23
2018-08-23T10:30:01.553Z,8.40
2018-08-23T10:32:06.740Z,7.23
2018-08-23T10:34:11.918Z,7.17
2018-08-23T10:36:17.112Z,5.60
2018-08-23T10:38:23.716Z,6.60
2018-08-23T10:40:29.974Z,6.87
2018-08-23T10:42:35.002Z,5.80
2018-08-23T10:44:40.245Z,6.20
2018-08-23T10:46:50.041Z,5.20
2018-08-23T10:48:55.074Z,5.90
2018-08-23T10:51:00.207Z,6.27
2018-08-23T10:53:05.423Z,5.30
2018-08-23T10:55:10.717Z,5.43
2018-08-23T10:57:18.761Z,7.00
2018-08-23T10:59:23.884Z,5.60
2018-08-23T11:01:28.673Z,4.90
2018-08-23T11:03:33.984Z,4.60
2018-08-23T11:05:39.139Z,5.10
2018-08-23T11:07:48.924Z,4.50
2018-08-23T11:09:58.996Z,6.13
2018-08-23T11:12:04.406Z,6.00
2018-08-23T11:14:41.251Z,7.50
2018-08-23T11:18:52.237Z,5.90
2018-08-23T11:20:57.030Z,5.60
2018-08-23T11:23:02.287Z,5.07
2018-08-23T11:25:07.670Z,6.67
2018-08-23T11:27:14.938Z,6.47
2018-08-23T11:29:22.640Z,6.50
2018-08-23T11:31:31.293Z,5.80
2018-08-23T11:33:36.568Z,6.53
2018-08-23T11:35:41.748Z,5.03
2018-08-23T11:37:46.819Z,4.47
2018-08-23T11:39:52.169Z,5.30
2018-08-23T11:41:57.328Z,5.10
2018-08-23T11:44:02.648Z,5.33
2018-08-23T11:46:12.803Z,3.93
2018-08-23T11:48:17.834Z,3.30
2018-08-23T11:50:22.951Z,4.03
2018-08-23T11:52:28.056Z,4.07
2018-08-23T11:54:33.151Z,4.30
2018-08-23T11:56:38.351Z,4.30
2018-08-23T11:58:43.796Z,5.30
2018-08-23T12:00:49.198Z,5.93
2018-08-23T12:02:54.099Z,6.60
2018-08-23T12:04:59.093Z,5.90
2018-08-23T12:07:04.165Z,5.83
2018-08-23T12:09:09.594Z,6.63
2018-08-23T12:11:14.788Z,5.27
2018-08-23T12:13:19.893Z,5.60
2018-08-23T12:15:28.735Z,4.40
2018-08-23T12:17:33.862Z,2.70
2018-08-23T12:19:38.920Z,2.60
2018-08-23T12:21:43.771Z,3.33
2018-08-23T12:23:48.840Z,3.43
2018-08-23T12:25:54.683Z,3.60
2018-08-23T12:30:09.150Z,3.03
2018-08-23T12:32:14.476Z,3.10
2018-08-23T12:34:38.948Z,3.80
2018-08-23T12:36:49.503Z,4.27
2018-08-23T12:38:59.822Z,4.73
2018-08-23T12:41:10.427Z,3.97
2018-08-23T12:43:16.203Z,4.20
2018-08-23T12:45:22.507Z,4.40
2018-08-23T12:47:27.742Z,4.47
2018-08-23T12:49:32.910Z,5.70
2018-08-23T12:51:38.477Z,5.83
2018-08-23T12:53:43.652Z,6.23
2018-08-23T12:55:48.828Z,4.87
2018-08-23T12:57:53.726Z,4.37
2018-08-23T12:59:58.529Z,4.43
2018-08-23T13:02:03.595Z,4.10
2018-08-23T13:04:08.617Z,4.50
2018-08-23T13:06:13.601Z,5.20
2018-08-23T13:08:18.561Z,4.50
2018-08-23T13:10:23.453Z,5.10
2018-08-23T13:12:28.311Z,4.20
2018-08-23T13:14:33.306Z,4.40
2018-08-23T13:16:38.625Z,5.70
2018-08-23T13:18:43.523Z,4.40
2018-08-23T13:20:48.482Z,5.60
2018-08-23T13:22:53.516Z,3.93
2018-08-23T13:25:03.377Z,5.33
2018-08-23T13:27:08.319Z,6.40
2018-08-23T13:29:13.320Z,5.83
2018-08-23T13:31:18.583Z,5.77
2018-08-23T13:33:24.328Z,6.00
2018-08-23T13:35:29.365Z,6.50
2018-08-23T13:37:35.447Z,6.10
2018-08-23T13:39:40.499Z,7.00
2018-08-23T13:41:45.433Z,6.03
2018-08-23T13:43:50.313Z,6.40
2018-08-23T13:45:55.141Z,6.00
2018-08-23T13:47:59.988Z,5.20
2018-08-23T13:50:05.055Z,6.67
2018-08-23T13:52:10.060Z,5.70
2018-08-23T13:54:15.152Z,6.93
2018-08-23T13:56:20.670Z,6.37
2018-08-23T13:58:26.289Z,6.20
2018-08-23T14:00:39.580Z,7.03
2018-08-23T14:02:45.164Z,6.30
2018-08-23T14:04:50.533Z,7.00
2018-08-23T14:06:56.068Z,7.50
2018-08-23T14:09:01.483Z,8.93
2018-08-23T14:11:06.576Z,6.43
2018-08-23T14:13:18.162Z,8.60
2018-08-23T14:15:34.278Z,8.13
2018-08-23T14:17:51.543Z,9.27
2018-08-23T14:20:04.383Z,10.10
2018-08-23T14:22:12.051Z,10.00
2018-08-23T14:24:17.893Z,9.50
2018-08-23T14:26:22.958Z,8.50
2018-08-23T14:28:28.184Z,8.10
2018-08-23T14:30:33.334Z,8.60
2018-08-23T14:32:38.493Z,7.57
2018-08-23T14:34:43.676Z,9.10
2018-08-23T14:36:49.666Z,9.80
2018-08-23T14:38:54.821Z,8.20
2018-08-23T14:41:00.109Z,9.60
2018-08-23T14:43:05.614Z,9.40
2018-08-23T14:45:11.883Z,9.70
2018-08-23T14:47:22.296Z,9.63
2018-08-23T14:49:33.320Z,8.97
2018-08-23T14:51:38.919Z,9.40
2018-08-23T14:53:44.739Z,7.70
2018-08-23T14:55:55.639Z,9.30
2018-08-23T14:58:01.862Z,8.67
2018-08-23T15:00:07.228Z,8.40
2018-08-23T15:02:12.431Z,10.00
2018-08-23T15:04:17.452Z,8.47
2018-08-23T15:06:23.054Z,8.43
2018-08-23T15:08:28.543Z,8.63
2018-08-23T15:10:35.856Z,8.67
2018-08-23T15:12:43.116Z,8.77
2018-08-23T15:14:49.058Z,9.43
2018-08-23T15:16:54.099Z,9.97
2018-08-23T15:18:59.405Z,8.70
2018-08-23T15:21:04.647Z,10.17
2018-08-23T15:23:09.893Z,9.67
2018-08-23T15:25:15.118Z,9.27
2018-08-23T15:27:20.382Z,8.40
2018-08-23T15:29:26.247Z,8.87
2018-08-23T15:31:31.773Z,9.27
2018-08-23T15:33:36.728Z,7.83
2018-08-23T15:35:41.544Z,9.07
2018-08-23T15:37:46.544Z,8.83
2018-08-23T15:39:51.411Z,7.93
2018-08-23T15:41:56.183Z,7.37
2018-08-23T15:44:01.235Z,7.63
2018-08-23T15:46:06.234Z,7.60
2018-08-23T15:48:11.860Z,7.50
2018-08-23T15:50:16.916Z,7.13
2018-08-23T15:52:26.351Z,8.00
2018-08-23T15:54:31.221Z,7.80
2018-08-23T15:56:38.966Z,6.97
2018-08-23T15:58:44.382Z,6.80
2018-08-23T16:00:50.542Z,7.40
2018-08-23T16:02:58.206Z,7.23
2018-08-23T16:05:06.408Z,6.90
2018-08-23T16:07:12.579Z,7.00
2018-08-23T16:09:43.728Z,7.60
2018-08-23T16:11:53.247Z,7.50
2018-08-23T16:13:58.679Z,6.10
2018-08-23T16:16:11.924Z,6.00
2018-08-23T16:18:30.386Z,6.87
2018-08-23T16:20:45.955Z,5.60
2018-08-23T16:22:54.631Z,5.70
2018-08-23T16:25:04.640Z,5.13
2018-08-23T16:27:10.008Z,4.70
2018-08-23T16:29:18.787Z,5.23
2018-08-23T16:31:24.527Z,5.20
2018-08-23T16:33:29.359Z,4.80
2018-08-23T16:35:34.615Z,5.60
2018-08-23T16:37:39.827Z,4.80
2018-08-23T16:39:44.926Z,4.53
2018-08-23T16:41:50.337Z,4.70
2018-08-23T16:43:55.214Z,3.87
2018-08-23T16:46:04.959Z,4.03
2018-08-23T16:48:10.392Z,3.60
2018-08-23T16:50:15.790Z,3.97
2018-08-23T16:52:23.487Z,3.67
2018-08-23T16:54:28.598Z,3.63
2018-08-23T16:56:33.920Z,3.47
2018-08-23T16:58:38.892Z,3.63
2018-08-23T17:00:44.241Z,3.63
2018-08-23T17:02:49.664Z,3.40
2018-08-23T17:04:54.985Z,3.80
2018-08-23T17:07:00.203Z,4.17
2018-08-23T17:09:07.229Z,3.87
2018-08-23T17:11:12.507Z,3.90
2018-08-23T17:13:22.465Z,4.57
2018-08-23T17:15:31.594Z,4.67
2018-08-23T17:17:37.082Z,5.57
2018-08-23T17:19:42.141Z,5.27
2018-08-23T17:21:46.981Z,5.27
2018-08-23T17:23:52.085Z,5.40
2018-08-23T17:25:57.745Z,5.30
2018-08-23T17:28:02.939Z,4.40
2018-08-23T17:30:08.131Z,5.33
2018-08-23T17:32:13.321Z,4.40
2018-08-23T17:34:18.648Z,3.80
2018-08-23T17:36:23.885Z,4.20
2018-08-23T17:38:30.575Z,3.93
2018-08-23T17:40:35.688Z,3.67
2018-08-23T17:42:43.423Z,4.60
2018-08-23T17:44:48.565Z,3.53
2018-08-23T17:46:53.861Z,3.37
2018-08-23T17:48:59.246Z,4.30
2018-08-23T17:51:04.216Z,3.80
2018-08-23T17:53:10.504Z,2.17
2018-08-23T17:55:15.966Z,2.60
2018-08-23T17:57:21.535Z,2.80
2018-08-23T17:59:28.701Z,2.73
2018-08-23T18:01:34.512Z,3.27
2018-08-23T18:03:39.898Z,2.80
2018-08-23T18:05:45.898Z,2.70
2018-08-23T18:07:50.839Z,2.60
2018-08-23T18:09:57.323Z,2.50
2018-08-23T18:12:03.296Z,2.57
2018-08-23T18:14:08.640Z,2.93
2018-08-23T18:16:20.086Z,3.23
2018-08-23T18:18:26.175Z,3.33
2018-08-23T18:20:32.519Z,2.90
2018-08-23T18:22:41.567Z,3.03
2018-08-23T18:24:46.528Z,2.93
2018-08-23T18:26:51.650Z,2.60
2018-08-23T18:28:56.686Z,2.57
2018-08-23T18:31:02.469Z,3.70
2018-08-23T18:33:07.723Z,2.83
2018-08-23T18:35:13.060Z,2.90
2018-08-23T18:37:18.170Z,3.30
2018-08-23T18:39:23.136Z,2.80
2018-08-23T18:41:28.349Z,2.40
2018-08-23T18:43:35.640Z,2.90
2018-08-23T18:45:40.829Z,3.20
2018-08-23T18:47:46.074Z,2.40
2018-08-23T18:49:52.033Z,2.63
2018-08-23T18:51:57.162Z,2.40
2018-08-23T18:54:02.579Z,2.33
2018-08-23T18:56:08.401Z,3.47
2018-08-23T18:58:19.079Z,3.03
2018-08-23T19:00:24.753Z,3.77
2018-08-23T19:02:30.549Z,3.70
2018-08-23T19:04:41.564Z,2.40
2018-08-23T19:06:52.926Z,2.70
2018-08-23T19:08:58.686Z,2.70
2018-08-23T19:11:04.140Z,2.47
2018-08-23T19:13:15.948Z,2.70
2018-08-23T19:15:27.225Z,2.50
2018-08-23T19:17:39.369Z,2.43
2018-08-23T19:19:45.240Z,3.73
2018-08-23T19:21:50.443Z,3.10
2018-08-23T19:23:55.761Z,3.67
2018-08-23T19:26:00.932Z,2.07
2018-08-23T19:28:06.961Z,2.80
2018-08-23T19:30:12.332Z,2.73
2018-08-23T19:32:22.523Z,2.17
2018-08-23T19:34:28.696Z,2.00
2018-08-23T19:36:34.442Z,2.00
2018-08-23T19:38:40.019Z,1.80
2018-08-23T19:40:45.206Z,1.90
2018-08-23T19:42:50.849Z,2.10
2018-08-23T19:44:56.963Z,1.97
2018-08-23T19:47:08.286Z,1.80
2018-08-23T19:49:19.219Z,1.87
2018-08-23T19:51:24.650Z,1.73
2018-08-23T19:54:07.448Z,2.17
2018-08-23T19:56:13.099Z,1.70
2018-08-23T19:58:18.996Z,1.87
2018-08-23T20:00:27.395Z,2.00
2018-08-23T20:02:32.457Z,2.00
2018-08-23T20:04:37.703Z,2.27
2018-08-23T20:06:43.481Z,2.40
2018-08-23T20:08:48.453Z,1.80
2018-08-23T20:11:00.250Z,2.50
2018-08-23T20:13:05.936Z,2.13
2018-08-23T20:15:13.245Z,2.63
2018-08-23T20:17:21.915Z,1.83
2018-08-23T20:22:12.238Z,1.90
2018-08-23T20:24:18.019Z,2.57
2018-08-23T20:26:27.837Z,2.13
2018-08-23T20:28:33.907Z,1.97
2018-08-23T20:30:49.714Z,2.00
2018-08-23T20:36:03.880Z,1.70
2018-08-23T20:40:40.649Z,1.90
2018-08-23T20:42:49.101Z,1.80
2018-08-23T20:44:58.723Z,1.70
2018-08-23T20:47:05.289Z,2.23
2018-08-23T20:49:13.900Z,1.50
2018-08-23T20:51:20.595Z,1.50
2018-08-23T20:53:27.431Z,1.57
2018-08-23T20:55:52.999Z,1.50
2018-08-23T20:58:00.325Z,2.00
2018-08-23T21:00:07.671Z,1.70
2018-08-23T21:02:34.967Z,1.63
2018-08-23T21:04:46.578Z,1.87
2018-08-23T21:06:54.218Z,1.70
2018-08-23T21:09:01.073Z,1.70
2018-08-23T21:11:10.462Z,1.97
2018-08-23T21:13:16.441Z,2.63
2018-08-23T21:15:39.149Z,1.90
2018-08-23T21:17:59.456Z,1.80
2018-08-23T21:20:30.874Z,1.50
2018-08-23T21:22:44.202Z,1.60
2018-08-23T21:24:49.756Z,1.80
2018-08-23T21:27:00.275Z,1.50
2018-08-23T21:31:39.063Z,1.00
2018-08-23T21:33:56.870Z,1.70
2018-08-23T21:36:10.365Z,1.40
2018-08-23T21:38:27.422Z,1.43
2018-08-23T21:40:49.659Z,1.13
2018-08-23T21:45:33.875Z,1.50
2018-08-23T21:47:46.924Z,1.30
2018-08-23T21:50:08.084Z,1.20
2018-08-23T21:52:20.740Z,1.10
2018-08-23T21:54:32.098Z,1.20
2018-08-23T21:56:50.174Z,1.00
2018-08-23T21:59:20.811Z,1.17
2018-08-23T22:01:39.953Z,1.00
2018-08-23T22:03:58.622Z,1.20
2018-08-23T22:06:24.071Z,1.13
2018-08-23T22:08:33.350Z,1.50
2018-08-23T22:10:47.749Z,1.13
2018-08-23T22:13:10.316Z,1.20
2018-08-23T22:15:36.866Z,1.47
2018-08-23T22:17:42.047Z,0.90
2018-08-23T22:19:47.211Z,1.57
2018-08-23T22:21:52.464Z,2.10
2018-08-23T22:23:57.831Z,1.47
2018-08-23T22:26:03.521Z,1.47
2018-08-23T22:28:09.469Z,2.10
2018-08-23T22:30:15.247Z,1.30
2018-08-23T22:32:20.286Z,1.30
2018-08-23T22:34:25.523Z,1.27
2018-08-23T22:36:30.675Z,1.20
2018-08-23T22:38:35.954Z,1.60
2018-08-23T22:40:41.259Z,1.27
2018-08-23T22:42:46.704Z,1.33
2018-08-23T22:44:52.054Z,1.13
2018-08-23T22:46:57.519Z,1.10
2018-08-23T22:49:03.150Z,1.50
2018-08-23T22:51:08.091Z,1.43
2018-08-23T22:53:13.338Z,1.03
2018-08-23T22:55:18.757Z,1.30
2018-08-23T22:57:24.087Z,1.30
2018-08-23T22:59:29.181Z,1.30
2018-08-23T23:01:34.626Z,1.13
2018-08-23T23:03:44.754Z,1.10
2018-08-23T23:05:49.972Z,1.03
2018-08-23T23:07:56.063Z,1.27
2018-08-23T23:10:01.554Z,1.30
2018-08-23T23:12:08.189Z,1.50
2018-08-23T23:14:14.177Z,1.10
2018-08-23T23:16:19.972Z,1.17
2018-08-23T23:18:25.634Z,1.47
2018-08-23T23:20:30.850Z,0.83
2018-08-23T23:22:36.877Z,1.23
2018-08-23T23:24:47.309Z,0.90
2018-08-23T23:26:52.480Z,0.97
2018-08-23T23:28:57.747Z,1.00
2018-08-23T23:31:03.241Z,1.00
2018-08-23T23:33:08.362Z,1.00
2018-08-23T23:35:13.707Z,1.20
2018-08-23T23:37:18.923Z,1.33
2018-08-23T23:39:25.187Z,1.10
2018-08-23T23:41:30.301Z,0.90
2018-08-23T23:43:35.509Z,0.70
2018-08-23T23:45:40.724Z,1.03
2018-08-23T23:47:46.097Z,1.27
2018-08-23T23:49:53.332Z,1.07
2018-08-23T23:51:58.803Z,0.80
2018-08-23T23:54:04.071Z,1.13
2018-08-23T23:56:09.260Z,0.73
2018-08-23T23:58:15.643Z,1.00
